Flight Track Log - Related Links

Times and Time Zones

All times are in EDT time to prevent confusion due to time zone crossing. See the SWA1730 flight status page for this flight to view local times or setup timezone preferences in your user account.

Time Position Orientation Groundspeed Altitude Reporting Facility
EDT Latitude Longitude Course Direction KTS MPH feet Rate Location/Type
Fri 08:09:46 AM 35.0428 -106.5872 159° South 151 174 5,900  Level Albuquerque Center
Fri 08:10:34 AM 35.0103 -106.5722 159° South 191 220 7,500 1,761 Climbing Albuquerque Center
Fri 08:11:18 AM 34.9994 -106.6050 248° West 239 275 8,600 2,250 Climbing Albuquerque Center
Fri 08:12:18 AM 35.0797 -106.6589 331° Northwest 277 319 11,400 3,200 Climbing Albuquerque Center
Fri 08:13:18 AM 35.1636 -106.7092 334° Northwest 329 379 15,000 3,372 Climbing Albuquerque Center
Fri 08:14:19 AM 35.2558 -106.7478 341° North 354 407 18,200 2,926 Climbing Albuquerque Center
Fri 08:15:19 AM 35.3575 -106.7411 North 381 438 20,900 2,826 Climbing Albuquerque Center
Fri 08:16:20 AM 35.4711 -106.7364 North 389 448 23,900 2,727 Climbing Albuquerque Center
Fri 08:17:20 AM 35.5869 -106.7292 North 407 468 26,400 2,826 Climbing Albuquerque Center
Fri 08:18:21 AM 35.6994 -106.7225 North 411 473 29,600 1,785 Climbing Albuquerque Center
Fri 08:19:21 AM 35.8233 -106.7153 North 404 465 30,000 198 Climbing Albuquerque Center
Fri 08:20:22 AM 35.9225 -106.7086 North 401 461 30,000  Level Albuquerque Center
Fri 08:21:22 AM 36.0331 -106.7031 North 398 458 30,000  Level Albuquerque Center
Fri 08:22:23 AM 36.1425 -106.6956 North 396 456 30,000  Level Albuquerque Center
Fri 08:23:23 AM 36.2614 -106.6881 North 393 452 30,000  Level Albuquerque Center
Fri 08:24:24 AM 36.3675 -106.6819 North 396 456 30,000  Level Albuquerque Center
Fri 08:24:44 AM 36.4028 -106.6794 North 398 458 30,000  Level Denver Center
Fri 08:25:45 AM 36.5250 -106.6714 North 394 453 30,000  Level Denver Center
Fri 08:26:45 AM 36.6294 -106.6642 North 394 453 30,000  Level Denver Center
Fri 08:27:46 AM 36.7358 -106.6589 North 397 457 30,000  Level Denver Center
Fri 08:28:47 AM 36.8578 -106.6433 North 397 457 30,000  Level Denver Center
Fri 08:29:48 AM 36.9597 -106.6128 13° North 395 455 30,000  Level Denver Center
Fri 08:30:48 AM 37.0614 -106.5811 14° North 393 452 30,000  Level Denver Center
Fri 08:31:49 AM 37.1814 -106.5469 13° North 395 455 30,000  Level Denver Center
Fri 08:32:50 AM 37.2825 -106.5167 13° North 392 451 30,000  Level Denver Center
Fri 08:33:51 AM 37.3819 -106.4839 15° North 388 447 30,000  Level Denver Center
Fri 08:34:52 AM 37.4994 -106.4469 14° North 389 448 30,000  Level Denver Center
Fri 08:35:52 AM 37.6003 -106.4161 14° North 385 443 30,000  Level Denver Center
Fri 08:36:53 AM 37.7003 -106.3850 14° North 385 443 30,000  Level Denver Center
Fri 08:37:54 AM 37.8072 -106.3106 29° Northeast 390 449 30,000  Level Denver Center
Fri 08:38:55 AM 37.8994 -106.2461 29° Northeast 387 445 30,000  Level Denver Center
Fri 08:39:56 AM 37.9922 -106.1831 28° Northeast 392 451 30,000  Level Denver Center
Fri 08:40:56 AM 38.1028 -106.1089 28° Northeast 399 459 30,000  Level Denver Center
Fri 08:41:57 AM 38.1956 -106.0444 29° Northeast 398 458 30,000  Level Denver Center
Fri 08:42:58 AM 38.2886 -105.9806 28° Northeast 396 456 30,000  Level Denver Center
Fri 08:43:59 AM 38.3964 -105.9075 28° Northeast 393 452 30,000  Level Denver Center
Fri 08:45:00 AM 38.4889 -105.8419 29° Northeast 396 456 30,000  Level Denver Center
Fri 08:46:01 AM 38.5811 -105.7781 28° Northeast 394 453 30,000  Level Denver Center
Fri 08:47:02 AM 38.6889 -105.7033 28° Northeast 394 453 30,000  Level Denver Center
Fri 08:48:02 AM 38.7819 -105.6386 28° Northeast 394 453 30,000 -248 Level Denver Center
Fri 08:49:03 AM 38.8750 -105.5742 28° Northeast 397 457 29,500 -1,279 Descending Denver Center
Fri 08:50:04 AM 38.9797 -105.5000 29° Northeast 388 447 27,400 -1,967 Descending Denver Center
Fri 08:51:05 AM 39.0675 -105.4364 29° Northeast 380 437 25,500 -1,967 Descending Denver Center
Fri 08:52:06 AM 39.1586 -105.3744 28° Northeast 357 411 23,400 -1,869 Descending Denver Center
Fri 08:53:07 AM 39.2433 -105.3133 29° Northeast 348 400 21,700 -1,574 Descending Denver Center
Fri 08:54:08 AM 39.3186 -105.2450 35° Northeast 329 379 20,200 -1,537 Descending Denver Center
Fri 08:55:08 AM 39.3883 -105.1733 38° Northeast 321 369 18,600 -1,240 Descending Denver Center
Fri 08:56:09 AM 39.4489 -105.1183 35° Northeast 316 364 17,700 -738 Descending Denver Center
Fri 08:57:10 AM 39.5328 -105.0344 38° Northeast 312 359 17,100 -590 Descending Denver Center
Fri 08:58:11 AM 39.6017 -104.9683 36° Northeast 309 356 16,500 -1,082 Descending Denver Center
Fri 08:59:12 AM 39.6675 -104.9022 38° Northeast 301 346 14,900 -1,537 Descending Denver Center
Fri 09:00:12 AM 39.7375 -104.8433 33° Northeast 302 348 13,400 -1,488 Descending Denver Center
Fri 09:01:13 AM 39.8183 -104.8408 North 291 335 11,900 -1,131 Descending Denver Center
Fri 09:02:14 AM 39.8956 -104.8386 North 276 318 11,100 -885 Descending Denver Center
Fri 09:03:15 AM 39.9656 -104.8194 12° North 257 296 10,100 -984 Descending Denver Center
Fri 09:04:16 AM 40.0142 -104.7647 41° Northeast 245 282 9,100 -1,377 Descending Denver Center
Fri 09:05:17 AM 39.9933 -104.6931 111° Southeast 212 244 7,300 -1,388 Descending Denver Center
Fri 09:06:17 AM 39.9411 -104.6864 174° South 192 221 6,300 -942 Descending Denver Center
Fri 09:07:18 AM 39.8975 -104.6869 181° South 164 189 5,400 -885 Descending Denver Center
Fri 09:09:00 AM 39.8617 -104.6732 North  Level Estimated
Fri 09:16:00 AM 39.8617 -104.6732 North  Level Estimated
Fri 09:17:00 AM 39.8617 -104.6732 North  Level Estimated

Login

Don't have an account? Register now (free) for customized features, flight alerts, and more!